Terminal Aerodrome Forecast
Issued by NWS

Home | Current Version | Previous Version | Text Only | Print | Product List | Glossary Off
Versions: 1 2 3 4 5 6 7 8 9 10 11 12 13 14 15 16 17 18

000
FTUS43 KMPX 251700
TAFRNH
TAF
KRNH 251740Z 2518/2618 20006KT P6SM OVC011
     FM260400 04005KT 6SM BR OVC015
      TEMPO 2606/2610 5SM -SN
     FM261000 36007KT P6SM OVC015=

USA.gov is the U.S. government's official web portal to all federal, state and local government web resources and services.